Time;durP1;ratioP1;P1;durP2;ratioP2;P2;SDS_P1;SDS_P2;PMS_P1;PMS_P2;Temp;Humidity;BMP_temperature;BMP_pressure;BME280_temperature;BME280_humidity;BME280_pressure;Samples;Min_cycle;Max_cycle;Signal;HPM_P1;HPM_P2
2022/10/24 00:02:15;;;;;;;;;0.67;0.33;;;;;18.45;60.25;100002.09;5008700;28;45679;-63
2022/10/24 00:04:41;;;;;;;;;1.00;1.00;;;;;18.40;60.53;99995.47;5019115;28;45383;-58
2022/10/24 00:07:07;;;;;;;;;0.00;0.00;;;;;18.42;60.68;99990.78;5018697;28;45357;-58
2022/10/24 00:09:34;;;;;;;;;0.00;0.00;;;;;18.34;60.84;99994.22;5018123;28;45372;-59
2022/10/24 00:12:00;;;;;;;;;0.00;0.00;;;;;18.35;61.25;100000.44;5018077;28;45731;-59
2022/10/24 00:14:25;;;;;;;;;2.00;0.00;;;;;18.33;61.22;100003.28;5018956;28;45629;-57
2022/10/24 00:16:51;;;;;;;;;3.00;1.00;;;;;18.31;61.01;99999.91;5018599;28;45359;-59
2022/10/24 00:19:17;;;;;;;;;1.67;0.67;;;;;18.30;61.09;99984.75;5018596;28;45345;-59
2022/10/24 00:21:42;;;;;;;;;2.00;0.33;;;;;18.26;61.17;99992.28;5018070;28;45327;-58
2022/10/24 00:24:08;;;;;;;;;2.00;0.00;;;;;18.24;61.16;99988.91;5018338;28;46281;-58
2022/10/24 00:26:34;;;;;;;;;0.00;0.00;;;;;18.22;61.58;99990.00;5018177;28;45680;-58
2022/10/24 00:29:00;;;;;;;;;2.00;0.00;;;;;18.21;61.58;99983.78;5018453;28;45375;-60
2022/10/24 00:31:25;;;;;;;;;0.33;0.00;;;;;18.17;61.68;99981.56;5017875;28;45753;-59
2022/10/24 00:33:51;;;;;;;;;0.33;0.00;;;;;18.17;61.58;99993.16;5018263;28;45293;-58
2022/10/24 00:36:20;;;;;;;;;1.00;1.00;;;;;18.10;61.40;99989.41;5017952;28;45264;-58
2022/10/24 00:38:45;;;;;;;;;0.00;0.00;;;;;18.10;61.83;100002.84;5018611;28;45368;-59
2022/10/24 00:41:22;;;;;;;;;1.00;0.00;;;;;18.05;62.35;100005.13;5016810;28;45404;-60
2022/10/24 00:43:48;;;;;;;;;1.00;0.00;;;;;17.96;62.09;99987.16;5033040;28;46521;-57
2022/10/24 00:46:16;;;;;;;;;2.00;0.67;;;;;17.96;62.29;99990.69;5018013;28;45308;-58
2022/10/24 00:48:52;;;;;;;;;0.33;0.00;;;;;17.89;62.34;99984.22;5018127;28;45328;-58
2022/10/24 00:51:20;;;;;;;;;1.00;1.00;;;;;17.94;62.36;99997.22;5017240;28;45329;-59
2022/10/24 00:53:50;;;;;;;;;2.67;0.00;;;;;17.88;62.90;99997.84;5018131;28;45406;-57
2022/10/24 00:56:19;;;;;;;;;0.00;0.00;;;;;17.87;62.58;100001.53;5017114;28;45349;-58
2022/10/24 00:58:46;;;;;;;;;1.00;1.00;;;;;17.82;62.66;100009.16;4998287;28;45368;-58
2022/10/24 01:01:12;;;;;;;;;0.00;0.00;;;;;17.81;62.78;100007.47;5017349;28;45446;-58
2022/10/24 01:03:37;;;;;;;;;0.00;0.00;;;;;17.80;62.94;100013.84;5017684;28;46175;-58
2022/10/24 01:06:08;;;;;;;;;1.00;1.00;;;;;17.76;62.75;100021.38;5017521;28;45454;-60
2022/10/24 01:08:56;;;;;;;;;2.00;0.00;;;;;17.74;62.96;100033.28;5017070;28;45547;-59
2022/10/24 01:11:46;;;;;;;;;2.00;0.00;;;;;17.69;63.25;100018.41;5017833;28;45264;-61
2022/10/24 01:14:31;;;;;;;;;0.00;0.00;;;;;17.64;63.41;100034.09;5017245;28;46368;-59
2022/10/24 01:17:06;;;;;;;;;0.00;0.00;;;;;17.60;63.85;100024.63;5017658;28;45304;-61
2022/10/24 01:20:02;;;;;;;;;1.00;1.00;;;;;17.58;63.87;100041.91;5017607;28;45406;-59
2022/10/24 01:22:35;;;;;;;;;0.00;0.00;;;;;17.58;63.89;100060.72;5030609;28;45528;-58
2022/10/24 01:25:27;;;;;;;;;2.00;0.33;;;;;17.57;63.99;100050.94;5017315;28;46137;-57
2022/10/24 01:28:00;;;;;;;;;1.67;1.00;;;;;17.59;64.21;100055.22;5016811;28;45465;-59
2022/10/24 01:30:28;;;;;;;;;0.00;0.00;;;;;17.60;64.28;100059.59;5017026;28;45184;-59
2022/10/24 01:33:01;;;;;;;;;4.00;1.00;;;;;17.63;64.01;100058.44;5016906;28;45580;-57
2022/10/24 01:35:34;;;;;;;;;0.00;0.00;;;;;17.64;63.84;100055.59;5017748;28;45522;-58
2022/10/24 01:38:28;;;;;;;;;1.33;0.00;;;;;17.64;64.00;100050.22;4997236;28;45307;-57
2022/10/24 01:41:25;;;;;;;;;1.67;0.00;;;;;17.60;64.24;100043.47;4996454;28;45539;-58
2022/10/24 01:44:04;;;;;;;;;2.00;0.00;;;;;17.58;64.43;100050.81;5008600;28;45665;-58
2022/10/24 01:46:34;;;;;;;;;1.67;0.67;;;;;17.40;64.35;100034.56;5016771;28;46184;-60
2022/10/24 01:49:09;;;;;;;;;0.00;0.00;;;;;17.56;64.82;100057.31;5016938;28;45363;-57
2022/10/24 01:51:37;;;;;;;;;0.33;0.00;;;;;17.52;65.07;100048.69;5016414;28;45465;-56
2022/10/24 01:54:04;;;;;;;;;1.67;1.33;;;;;17.51;65.07;100049.69;5018629;28;45524;-58
2022/10/24 01:56:30;;;;;;;;;1.00;1.00;;;;;17.49;64.82;100040.91;5016448;28;45426;-58
2022/10/24 01:59:27;;;;;;;;;0.00;0.00;;;;;17.50;64.95;100055.22;5031203;28;45518;-60
2022/10/24 02:01:58;;;;;;;;;0.00;0.00;;;;;17.48;65.15;100049.13;5012128;28;45733;-58
2022/10/24 02:04:27;;;;;;;;;2.67;1.00;;;;;17.45;65.05;100039.53;5016854;28;45389;-58
2022/10/24 02:06:55;;;;;;;;;1.67;1.00;;;;;17.45;65.34;100044.91;4996562;28;46109;-59
2022/10/24 02:09:21;;;;;;;;;1.33;0.00;;;;;17.43;65.22;100035.25;5015265;28;45323;-59
2022/10/24 02:11:48;;;;;;;;;2.33;0.00;;;;;17.42;65.24;100044.31;5013567;28;45590;-59
2022/10/24 02:14:19;;;;;;;;;8.33;0.33;;;;;17.39;65.58;100032.00;5016505;28;45634;-58
2022/10/24 02:16:45;;;;;;;;;2.00;0.00;;;;;17.40;64.97;100029.19;5015856;28;46255;-59
2022/10/24 02:19:13;;;;;;;;;2.00;0.00;;;;;17.41;65.22;100035.41;5015280;28;45581;-58
2022/10/24 02:21:51;;;;;;;;;3.00;0.67;;;;;17.37;65.90;100036.69;5015316;28;45473;-59
2022/10/24 02:24:27;;;;;;;;;2.00;1.00;;;;;17.35;65.08;100030.63;5035587;28;45657;-59
2022/10/24 02:27:00;;;;;;;;;0.33;0.33;;;;;17.34;65.33;100016.31;5036572;28;45392;-59
2022/10/24 02:29:33;;;;;;;;;0.67;0.67;;;;;17.35;65.35;100017.19;5036119;27;45354;-60
2022/10/24 02:32:01;;;;;;;;;3.67;1.67;;;;;17.35;65.74;100017.19;5013679;28;45780;-58
2022/10/24 02:34:30;;;;;;;;;6.67;1.00;;;;;17.28;66.33;100011.50;5016543;28;45484;-57
2022/10/24 02:36:58;;;;;;;;;0.67;0.00;;;;;17.33;66.08;100016.47;5015547;28;45298;-57
2022/10/24 02:39:25;;;;;;;;;3.00;0.00;;;;;17.29;65.93;100007.81;5019816;28;45560;-58
2022/10/24 02:41:54;;;;;;;;;2.00;0.00;;;;;17.28;66.40;100005.28;5010393;28;45578;-58
2022/10/24 02:44:22;;;;;;;;;2.00;0.00;;;;;17.26;65.79;100001.91;5016599;28;45338;-58
2022/10/24 02:46:51;;;;;;;;;0.00;0.00;;;;;17.27;66.12;99998.22;5021767;28;46214;-59
2022/10/24 02:49:17;;;;;;;;;3.00;1.00;;;;;17.25;66.78;100000.22;5017910;28;45704;-59
2022/10/24 02:51:45;;;;;;;;;3.33;1.00;;;;;17.22;66.38;99992.44;5014383;28;45258;-57
2022/10/24 02:54:11;;;;;;;;;5.33;1.00;;;;;17.21;66.56;99994.28;5020305;28;46618;-57
2022/10/24 02:56:48;;;;;;;;;0.00;0.00;;;;;17.19;66.53;99985.50;5014045;28;46651;-58
2022/10/24 02:59:13;;;;;;;;;7.33;2.00;;;;;17.17;66.28;99986.63;5009751;28;47446;-60
2022/10/24 03:01:39;;;;;;;;;2.33;0.00;;;;;17.16;66.41;99990.31;5016075;28;45343;-57
2022/10/24 03:04:04;;;;;;;;;2.00;2.00;;;;;17.21;66.46;100009.56;5016355;28;45498;-60
2022/10/24 03:06:30;;;;;;;;;1.00;1.00;;;;;17.16;66.22;100007.28;5015584;28;45698;-59
2022/10/24 03:08:55;;;;;;;;;1.67;0.67;;;;;17.17;66.75;100021.56;5015405;28;45486;-59
2022/10/24 03:11:21;;;;;;;;;2.33;1.33;;;;;17.16;66.78;100017.19;5031620;28;45346;-59
2022/10/24 03:13:46;;;;;;;;;0.33;0.33;;;;;17.09;66.38;100023.13;5017592;28;45377;-59
2022/10/24 03:16:12;;;;;;;;;2.33;0.00;;;;;17.11;66.80;100028.34;5018841;28;46079;-58
2022/10/24 03:18:37;;;;;;;;;1.33;0.00;;;;;17.08;67.55;100034.88;5017139;28;45442;-60
2022/10/24 03:21:03;;;;;;;;;1.00;1.00;;;;;17.04;67.65;100040.63;5019257;28;45303;-58
2022/10/24 03:23:28;;;;;;;;;0.33;0.33;;;;;17.04;67.03;100025.38;5019335;28;45340;-58
2022/10/24 03:25:58;;;;;;;;;0.67;0.67;;;;;17.03;67.44;100034.41;5019451;28;45475;-58
2022/10/24 03:28:24;;;;;;;;;9.33;1.67;;;;;17.04;67.33;100041.50;5019511;28;45442;-57
2022/10/24 03:30:51;;;;;;;;;2.00;0.00;;;;;16.98;67.29;100027.78;5034230;28;45451;-59
2022/10/24 03:33:16;;;;;;;;;2.00;1.00;;;;;17.00;67.27;100029.34;5019500;28;45472;-60
2022/10/24 03:35:42;;;;;;;;;2.00;0.00;;;;;17.02;67.33;100038.09;5018558;28;45671;-59
2022/10/24 03:38:07;;;;;;;;;0.33;0.33;;;;;16.95;67.37;100031.59;5018562;28;45428;-58
2022/10/24 03:40:34;;;;;;;;;3.33;0.67;;;;;16.97;67.23;100045.75;5018473;28;45359;-58
2022/10/24 03:43:00;;;;;;;;;1.00;1.00;;;;;16.94;67.16;100037.97;5001524;28;45578;-59
2022/10/24 03:45:25;;;;;;;;;0.00;0.00;;;;;16.94;67.82;100040.66;5019004;28;45274;-58
2022/10/24 03:47:51;;;;;;;;;2.33;1.33;;;;;16.93;67.90;100059.59;5018651;28;45304;-59
2022/10/24 03:50:16;;;;;;;;;1.00;0.67;;;;;16.92;67.98;100063.25;5017994;28;45332;-58
2022/10/24 03:52:42;;;;;;;;;1.00;1.00;;;;;16.91;68.14;100051.66;5017508;28;45446;-61
2022/10/24 03:55:08;;;;;;;;;3.00;1.00;;;;;16.90;67.72;100060.72;5017928;28;45415;-59
2022/10/24 03:57:33;;;;;;;;;2.00;2.00;;;;;16.88;68.15;100051.09;5018301;28;45465;-59
2022/10/24 03:59:59;;;;;;;;;3.00;1.67;;;;;16.85;68.09;100062.97;5018849;28;45434;-61
2022/10/24 04:02:24;;;;;;;;;1.00;1.00;;;;;16.86;68.15;100072.72;5017410;28;45702;-58
2022/10/24 04:04:49;;;;;;;;;0.00;0.00;;;;;16.87;67.81;100093.22;5018643;28;46006;-58
2022/10/24 04:07:15;;;;;;;;;1.67;0.00;;;;;16.80;68.38;100090.25;5018420;28;45474;-59
2022/10/24 04:09:40;;;;;;;;;1.00;1.00;;;;;16.79;68.44;100083.16;5017461;28;45430;-57
2022/10/24 04:12:06;;;;;;;;;2.00;1.00;;;;;16.83;68.84;100094.50;5018902;28;45308;-58
2022/10/24 04:14:31;;;;;;;;;0.67;0.67;;;;;16.82;68.66;100098.16;5018999;28;46061;-59
2022/10/24 04:16:57;;;;;;;;;5.50;2.50;;;;;16.79;68.67;100095.75;5018703;28;45699;-56
2022/10/24 04:19:22;;;;;;;;;2.67;2.00;;;;;16.78;69.02;100100.25;5018682;28;45534;-58
2022/10/24 04:21:48;;;;;;;;;3.00;2.00;;;;;16.78;68.99;100110.16;5018603;28;45216;-58
2022/10/24 04:24:14;;;;;;;;;1.00;1.00;;;;;16.80;68.86;100118.94;5016325;28;46116;-58
2022/10/24 04:26:43;;;;;;;;;1.33;0.00;;;;;16.78;69.29;100111.00;5017730;28;45375;-57
2022/10/24 04:29:09;;;;;;;;;4.67;1.00;;;;;16.75;69.19;100121.19;5018058;28;45352;-58
2022/10/24 04:31:34;;;;;;;;;3.67;1.00;;;;;16.74;68.90;100119.47;5018228;28;45422;-57
2022/10/24 04:33:59;;;;;;;;;0.00;0.00;;;;;16.66;69.40;100116.59;5018178;28;46275;-62
2022/10/24 04:36:25;;;;;;;;;1.67;0.00;;;;;16.74;68.98;100123.00;5017218;28;45478;-59
2022/10/24 04:38:50;;;;;;;;;3.67;1.00;;;;;16.71;69.08;100127.81;5018321;28;45787;-58
2022/10/24 04:41:16;;;;;;;;;4.00;1.00;;;;;16.69;69.28;100132.47;5018609;28;45512;-58
2022/10/24 04:43:41;;;;;;;;;2.00;0.00;;;;;16.64;69.71;100134.66;5018003;28;46820;-59
2022/10/24 04:46:06;;;;;;;;;1.00;1.00;;;;;16.65;69.30;100133.69;5018475;28;45505;-59
2022/10/24 04:48:32;;;;;;;;;3.33;2.00;;;;;16.64;69.37;100145.41;5017733;28;45392;-59
2022/10/24 04:50:58;;;;;;;;;4.00;1.00;;;;;16.61;69.65;100137.63;5018343;28;45636;-60
2022/10/24 04:53:23;;;;;;;;;1.00;1.00;;;;;16.58;69.84;100137.91;5017770;28;45209;-57
2022/10/24 04:55:49;;;;;;;;;2.00;2.00;;;;;16.62;69.59;100142.00;5016872;28;45505;-58
2022/10/24 04:58:15;;;;;;;;;4.67;1.00;;;;;16.61;69.61;100149.22;5018023;28;45297;-56
2022/10/24 05:00:45;;;;;;;;;1.00;1.00;;;;;16.48;69.86;100146.75;5018467;28;45487;-57
2022/10/24 05:03:11;;;;;;;;;1.00;1.00;;;;;16.50;69.70;100150.16;5017591;28;46493;-58
2022/10/24 05:05:37;;;;;;;;;2.33;1.33;;;;;16.47;69.83;100144.22;5017503;28;45442;-58
2022/10/24 05:08:02;;;;;;;;;6.00;2.00;;;;;16.54;69.86;100158.81;5017489;28;45293;-58
2022/10/24 05:10:28;;;;;;;;;2.33;1.00;;;;;16.48;69.92;100162.88;5017142;28;45581;-57
2022/10/24 05:12:53;;;;;;;;;1.00;1.00;;;;;16.48;70.14;100168.22;5016453;28;46459;-57
2022/10/24 05:15:19;;;;;;;;;2.00;2.00;;;;;16.49;70.25;100177.13;5016890;28;45364;-58
2022/10/24 05:17:44;;;;;;;;;1.00;1.00;;;;;16.46;70.58;100180.09;5017544;28;45283;-57
2022/10/24 05:20:10;;;;;;;;;2.00;1.00;;;;;16.44;70.04;100165.97;5017594;28;45246;-56
2022/10/24 05:22:36;;;;;;;;;4.00;1.33;;;;;16.42;70.36;100176.84;5016555;28;46495;-59
2022/10/24 05:25:01;;;;;;;;;4.00;1.00;;;;;16.35;70.21;100175.66;5017653;28;45301;-60
2022/10/24 05:27:26;;;;;;;;;2.33;0.33;;;;;16.38;70.89;100191.47;5019753;28;45727;-59
2022/10/24 05:29:53;;;;;;;;;3.67;1.67;;;;;16.39;70.66;100193.19;5017415;28;45566;-58
2022/10/24 05:32:20;;;;;;;;;6.00;1.00;;;;;16.34;70.65;100192.75;5016976;28;45404;-58
2022/10/24 05:34:45;;;;;;;;;2.67;1.33;;;;;16.40;70.88;100205.63;5016179;28;45431;-58
2022/10/24 05:37:11;;;;;;;;;2.67;1.00;;;;;16.43;71.10;100213.44;5016538;28;45798;-57
2022/10/24 05:39:36;;;;;;;;;5.33;1.67;;;;;16.45;71.32;100224.88;5017322;28;45252;-58
2022/10/24 05:42:02;;;;;;;;;0.67;0.67;;;;;16.47;71.62;100214.00;5015315;28;45604;-59
2022/10/24 05:44:27;;;;;;;;;2.00;0.00;;;;;16.45;71.50;100210.59;5016817;28;45355;-60
2022/10/24 05:46:53;;;;;;;;;3.67;1.00;;;;;16.42;71.54;100198.31;5016718;28;45481;-59
2022/10/24 05:49:19;;;;;;;;;1.00;1.00;;;;;16.42;71.53;100198.31;5016618;28;45337;-58
2022/10/24 05:51:44;;;;;;;;;3.33;2.00;;;;;16.44;71.40;100204.38;5017121;28;45368;-57
2022/10/24 05:54:10;;;;;;;;;1.00;1.00;;;;;16.44;71.87;100199.03;5023788;28;47274;-58
2022/10/24 05:56:35;;;;;;;;;1.33;1.00;;;;;16.38;71.67;100196.00;5019629;28;45245;-57
2022/10/24 05:59:02;;;;;;;;;7.33;2.67;;;;;16.43;71.91;100213.44;5016956;28;45712;-59
2022/10/24 06:01:28;;;;;;;;;2.00;2.00;;;;;16.46;71.43;100210.47;5015369;28;46907;-60
2022/10/24 06:03:53;;;;;;;;;2.33;1.00;;;;;16.44;72.22;100209.75;5016103;28;45468;-60
2022/10/24 06:06:19;;;;;;;;;3.33;2.00;;;;;16.44;71.73;100212.44;5016789;28;45414;-56
2022/10/24 06:08:44;;;;;;;;;6.00;1.00;;;;;16.46;71.57;100212.31;5015663;28;45630;-58
2022/10/24 06:11:10;;;;;;;;;1.00;1.00;;;;;16.45;71.30;100207.91;5015059;28;48066;-58
2022/10/24 06:13:37;;;;;;;;;1.33;1.33;;;;;16.45;71.65;100211.44;5016214;28;45488;-57
2022/10/24 06:16:05;;;;;;;;;2.33;1.00;;;;;16.43;71.93;100228.69;5016954;28;45317;-59
2022/10/24 06:18:31;;;;;;;;;1.67;1.67;;;;;16.43;71.59;100205.38;5016802;28;45510;-58
2022/10/24 06:21:01;;;;;;;;;5.50;1.00;;;;;16.41;71.90;100195.75;5015555;28;45245;-59
2022/10/24 06:23:26;;;;;;;;;2.67;2.00;;;;;16.43;71.31;100208.06;5033336;28;45566;-58
2022/10/24 06:25:52;;;;;;;;;2.33;1.00;;;;;16.41;71.83;100210.03;5029567;28;45513;-57
2022/10/24 06:28:17;;;;;;;;;2.00;2.00;;;;;16.44;71.32;100215.13;5016682;28;45440;-59
2022/10/24 06:30:43;;;;;;;;;4.33;2.00;;;;;16.45;71.40;100216.81;5014573;28;46179;-59
2022/10/24 06:33:08;;;;;;;;;2.67;2.67;;;;;16.45;71.51;100216.81;5014241;28;45242;-57
2022/10/24 06:35:34;;;;;;;;;1.33;1.33;;;;;16.43;71.45;100208.06;5018786;28;45273;-58
2022/10/24 06:37:59;;;;;;;;;2.00;2.00;;;;;16.41;71.56;100220.75;5016349;28;45217;-59
2022/10/24 06:40:25;;;;;;;;;1.00;1.00;;;;;16.40;71.49;100229.78;5015909;28;54601;-57
2022/10/24 06:42:50;;;;;;;;;6.67;4.00;;;;;16.39;71.45;100235.28;5016502;28;45432;-58
2022/10/24 06:45:18;;;;;;;;;2.33;1.00;;;;;16.37;71.39;100239.94;5018719;28;45528;-60
2022/10/24 06:47:43;;;;;;;;;2.00;1.00;;;;;16.35;71.32;100239.22;5046328;28;45647;-58
2022/10/24 06:50:09;;;;;;;;;2.00;2.00;;;;;16.29;71.21;100243.28;5035171;28;47539;-57
2022/10/24 06:52:36;;;;;;;;;2.33;2.33;;;;;16.33;71.09;100266.19;5036776;28;45275;-56
2022/10/24 06:55:01;;;;;;;;;2.00;1.00;;;;;16.27;70.84;100249.75;5036144;28;45472;-58
2022/10/24 06:57:27;;;;;;;;;2.67;2.00;;;;;16.31;70.94;100262.78;5021924;28;45479;-62
2022/10/24 06:59:52;;;;;;;;;3.00;1.00;;;;;16.32;71.00;100264.47;5014520;28;46352;-58
2022/10/24 07:02:18;;;;;;;;;9.33;1.00;;;;;16.25;71.28;100252.56;5015611;28;45966;-58
2022/10/24 07:04:43;;;;;;;;;1.00;1.00;;;;;16.33;71.07;100271.56;5016209;28;45261;-61
2022/10/24 07:07:14;;;;;;;;;4.33;1.33;;;;;16.26;70.50;100259.63;5018478;28;45662;-60
2022/10/24 07:09:40;;;;;;;;;2.67;2.33;;;;;16.33;70.51;100276.06;5016868;28;45477;-58
2022/10/24 07:12:06;;;;;;;;;3.33;2.00;;;;;16.32;70.85;100283.28;5030944;28;45362;-59
2022/10/24 07:14:31;;;;;;;;;4.00;1.00;;;;;16.34;70.86;100294.72;5018401;28;45529;-58
2022/10/24 07:16:57;;;;;;;;;2.33;2.00;;;;;16.39;70.68;100302.38;5015946;28;45376;-58
2022/10/24 07:19:22;;;;;;;;;3.67;2.00;;;;;16.46;70.53;100299.03;5014134;28;47517;-58
2022/10/24 07:21:48;;;;;;;;;4.00;2.67;;;;;16.55;69.89;100305.47;5015227;28;46275;-56
2022/10/24 07:24:13;;;;;;;;;4.00;2.00;;;;;16.59;70.18;100303.38;5017884;28;45446;-58
2022/10/24 07:26:38;;;;;;;;;4.33;2.00;;;;;16.56;69.96;100287.53;5031158;28;45182;-60
2022/10/24 07:29:04;;;;;;;;;1.00;1.00;;;;;16.63;69.87;100302.13;5014959;28;46690;-58
2022/10/24 07:31:32;;;;;;;;;6.67;2.00;;;;;16.72;69.90;100304.06;5018255;28;45237;-57
2022/10/24 07:33:59;;;;;;;;;2.00;2.00;;;;;16.74;69.50;100313.66;5021986;28;45395;-59
2022/10/24 07:36:26;;;;;;;;;2.67;1.67;;;;;16.75;70.04;100309.16;5035446;28;45625;-57
2022/10/24 07:38:54;;;;;;;;;5.33;3.00;;;;;16.72;69.43;100312.09;5018207;28;46623;-59
2022/10/24 07:41:20;;;;;;;;;3.33;1.33;;;;;16.65;69.98;100302.81;5015786;28;45695;-58
2022/10/24 07:43:46;;;;;;;;;4.67;3.67;;;;;16.58;70.00;100299.00;5029529;28;45423;-58
2022/10/24 07:46:14;;;;;;;;;3.00;1.67;;;;;16.62;70.02;100321.91;5015265;28;45557;-57
2022/10/24 07:48:41;;;;;;;;;4.33;2.67;;;;;16.65;70.19;100327.84;5013782;28;45477;-57
2022/10/24 07:51:08;;;;;;;;;7.00;5.00;;;;;16.68;70.28;100324.94;5015320;28;45438;-57
2022/10/24 07:53:33;;;;;;;;;2.33;2.33;;;;;16.63;70.15;100304.81;5030644;28;45220;-59
2022/10/24 07:55:59;;;;;;;;;4.33;1.33;;;;;16.48;70.30;100288.19;5038679;28;45280;-63
2022/10/24 07:58:25;;;;;;;;;5.67;3.67;;;;;16.57;70.55;100316.06;5025544;28;45574;-59
2022/10/24 08:00:51;;;;;;;;;6.00;4.67;;;;;16.66;70.40;100326.00;5046881;28;45675;-60
2022/10/24 08:03:16;;;;;;;;;11.67;5.00;;;;;16.71;70.21;100324.69;5020108;28;45906;-57
2022/10/24 08:05:42;;;;;;;;;12.67;8.00;;;;;16.69;70.20;100321.28;5018015;28;45657;-57
2022/10/24 08:08:08;;;;;;;;;3.00;3.00;;;;;16.69;70.45;100323.13;5018665;28;45396;-56
2022/10/24 08:10:33;;;;;;;;;11.67;5.00;;;;;16.72;70.45;100326.38;5018263;28;45783;-55
2022/10/24 08:12:58;;;;;;;;;11.33;4.67;;;;;16.77;70.04;100339.41;5017934;28;45323;-56
2022/10/24 08:15:26;;;;;;;;;5.67;5.00;;;;;16.77;70.22;100329.50;5017966;28;45321;-57
2022/10/24 08:17:55;;;;;;;;;5.33;5.00;;;;;16.91;70.70;100324.78;5023984;28;45388;-62
2022/10/24 08:20:23;;;;;;;;;6.33;3.00;;;;;17.03;70.32;100351.44;5017100;28;45457;-62
2022/10/24 08:22:48;;;;;;;;;2.67;2.67;;;;;17.13;70.40;100350.66;5017105;28;45501;-62
2022/10/24 08:25:14;;;;;;;;;4.00;4.00;;;;;17.23;69.90;100351.56;5017653;28;45430;-63
2022/10/24 08:27:41;;;;;;;;;1.67;1.33;;;;;17.21;69.83;100348.16;5015574;28;46468;-62
2022/10/24 08:30:08;;;;;;;;;3.33;2.67;;;;;17.33;69.44;100355.13;5009754;28;45480;-64
2022/10/24 08:32:34;;;;;;;;;2.33;2.00;;;;;17.36;69.51;100352.19;5013537;28;45260;-64
2022/10/24 08:35:00;;;;;;;;;5.67;2.67;;;;;17.44;69.07;100360.38;5013122;28;45567;-64
2022/10/24 08:37:26;;;;;;;;;2.67;1.00;;;;;17.53;69.41;100356.91;5018075;28;45418;-63
2022/10/24 08:39:54;;;;;;;;;2.67;1.00;;;;;17.60;68.82;100355.38;5011056;28;45506;-61
2022/10/24 08:42:23;;;;;;;;;6.00;5.00;;;;;17.70;67.51;100366.19;5007097;28;45552;-63
2022/10/24 08:44:50;;;;;;;;;1.67;1.67;;;;;17.72;67.65;100371.44;5011161;28;45583;-63
2022/10/24 08:47:41;;;;;;;;;3.00;2.00;;;;;17.84;67.34;100373.88;5028925;28;45690;-63
2022/10/24 08:50:25;;;;;;;;;5.67;3.67;;;;;17.88;67.15;100375.31;5019390;28;45395;-66
2022/10/24 08:53:05;;;;;;;;;4.33;4.33;;;;;17.86;66.71;100366.53;5015632;28;45327;-63
2022/10/24 08:55:41;;;;;;;;;2.67;2.67;;;;;17.90;66.98;100369.78;5017632;28;46123;-65
2022/10/24 08:58:14;;;;;;;;;3.00;1.00;;;;;17.84;66.76;100368.50;5006150;28;46926;-60
2022/10/24 09:00:43;;;;;;;;;4.00;2.67;;;;;17.82;67.13;100369.59;5016823;28;45368;-63
2022/10/24 09:03:25;;;;;;;;;3.33;3.33;;;;;17.79;66.47;100367.19;5017032;28;45379;-65
2022/10/24 09:05:59;;;;;;;;;2.33;1.00;;;;;17.78;67.48;100384.34;5018952;28;45241;-63
2022/10/24 09:08:58;;;;;;;;;5.33;3.00;;;;;17.75;66.80;100376.53;5017283;28;46678;-62
2022/10/24 09:11:42;;;;;;;;;7.33;4.00;;;;;17.78;67.84;100373.56;5024861;28;45430;-63
2022/10/24 09:14:13;;;;;;;;;5.00;3.33;;;;;17.87;66.94;100378.13;5017621;28;45663;-62
2022/10/24 09:16:41;;;;;;;;;6.67;3.33;;;;;17.90;66.38;100388.63;5017788;28;45352;-59
2022/10/24 09:19:12;;;;;;;;;7.00;2.00;;;;;17.96;66.77;100390.75;5017412;28;47024;-62
2022/10/24 09:21:41;;;;;;;;;6.00;2.33;;;;;18.03;66.41;100389.22;5017241;28;45268;-61
2022/10/24 09:24:16;;;;;;;;;7.33;2.00;;;;;18.10;66.48;100401.13;5017442;28;45380;-62
2022/10/24 09:26:44;;;;;;;;;3.67;2.00;;;;;18.15;66.77;100393.47;5035763;28;45421;-63
2022/10/24 09:29:10;;;;;;;;;3.33;3.33;;;;;18.25;65.72;100394.34;5035730;28;46441;-62
2022/10/24 09:31:36;;;;;;;;;4.00;2.33;;;;;18.29;66.03;100394.91;4997210;28;45368;-61
2022/10/24 09:34:03;;;;;;;;;4.00;2.00;;;;;18.36;65.40;100398.75;4997657;28;45362;-61
2022/10/24 09:36:29;;;;;;;;;3.00;3.00;;;;;18.40;65.18;100388.56;4997108;28;45430;-59
2022/10/24 09:38:55;;;;;;;;;5.00;2.00;;;;;18.41;64.20;100391.09;4997425;28;45997;-61
2022/10/24 09:41:32;;;;;;;;;6.00;3.00;;;;;18.50;64.43;100400.19;4997447;28;45341;-61
2022/10/24 09:44:00;;;;;;;;;1.67;1.67;;;;;18.51;63.93;100388.41;5008776;28;45572;-60
2022/10/24 09:46:35;;;;;;;;;9.00;2.00;;;;;18.64;64.65;100407.03;5009611;28;45605;-60
2022/10/24 09:49:17;;;;;;;;;1.00;1.00;;;;;18.70;64.47;100409.97;5031922;28;46798;-63
2022/10/24 09:51:50;;;;;;;;;6.33;3.33;;;;;18.65;64.21;100414.94;5032404;28;45564;-62
2022/10/24 09:54:18;;;;;;;;;4.33;2.67;;;;;18.62;64.17;100407.13;5017317;28;45351;-64
2022/10/24 09:56:58;;;;;;;;;2.67;2.67;;;;;18.57;64.83;100422.84;5017019;28;45387;-61
2022/10/24 09:59:40;;;;;;;;;3.67;2.00;;;;;18.42;65.06;100410.78;5015422;28;45518;-64
2022/10/24 10:02:28;;;;;;;;;7.33;3.00;;;;;18.48;65.92;100438.00;5014911;28;45451;-64
2022/10/24 10:05:06;;;;;;;;;3.00;2.00;;;;;18.44;65.69;100446.50;5015326;28;45477;-62
2022/10/24 10:07:34;;;;;;;;;2.67;2.00;;;;;18.36;66.27;100438.25;5016409;28;45609;-58
2022/10/24 10:10:17;;;;;;;;;1.33;1.00;;;;;18.27;66.44;100435.44;5031847;28;45476;-57
2022/10/24 10:12:46;;;;;;;;;4.67;3.00;;;;;18.34;66.42;100437.56;5031590;28;45401;-59
2022/10/24 10:15:22;;;;;;;;;2.67;1.67;;;;;18.37;66.02;100434.63;5016526;28;45344;-58
2022/10/24 10:17:51;;;;;;;;;4.67;3.00;;;;;18.34;65.81;100424.09;5016718;28;45450;-59
2022/10/24 10:20:36;;;;;;;;;3.00;1.33;;;;;18.46;65.54;100434.59;5009555;28;46154;-58
2022/10/24 10:23:25;;;;;;;;;4.00;3.00;;;;;18.50;65.13;100433.34;5015386;28;45331;-56
2022/10/24 10:26:13;;;;;;;;;3.00;2.00;;;;;18.44;64.83;100435.75;5016238;28;45356;-60
2022/10/24 10:28:57;;;;;;;;;2.67;2.67;;;;;18.51;65.05;100442.28;5015171;28;45362;-62
2022/10/24 10:31:27;;;;;;;;;3.00;1.00;;;;;18.57;64.71;100436.31;5015810;28;45497;-60
2022/10/24 10:34:04;;;;;;;;;4.00;3.00;;;;;18.70;64.46;100442.31;5019728;28;45650;-56
2022/10/24 10:36:55;;;;;;;;;3.50;3.00;;;;;18.83;64.09;100444.72;5015306;28;45477;-56
2022/10/24 10:40:05;;;;;;;;;2.33;1.33;;;;;18.88;64.05;100437.06;4996919;28;45292;-59
2022/10/24 10:42:47;;;;;;;;;5.33;2.33;;;;;18.79;63.79;100425.28;4994548;28;45510;-58
2022/10/24 10:45:35;;;;;;;;;4.00;3.00;;;;;18.82;63.87;100451.94;4995954;28;45397;-57
2022/10/24 10:48:31;;;;;;;;;3.67;1.67;;;;;18.88;63.81;100452.34;4998937;28;45368;-57
2022/10/24 10:51:06;;;;;;;;;2.33;2.00;;;;;18.92;64.01;100448.41;4999545;28;45458;-58
2022/10/24 10:53:47;;;;;;;;;1.00;1.00;;;;;18.98;63.32;100439.72;5015171;28;45942;-58
2022/10/24 10:56:34;;;;;;;;;2.50;2.50;;;;;19.14;62.72;100456.16;5004263;28;45657;-59
2022/10/24 10:59:21;;;;;;;;;7.00;2.00;;;;;19.20;62.89;100447.50;5016101;28;45367;-60
2022/10/24 11:01:50;;;;;;;;;6.33;1.67;;;;;19.35;62.45;100432.56;5016532;28;45252;-58
2022/10/24 11:04:56;;;;;;;;;4.33;3.00;;;;;19.51;61.92;100449.97;5015880;28;46305;-57
2022/10/24 11:07:27;;;;;;;;;6.00;2.00;;;;;19.50;61.73;100445.59;5015705;28;45908;-56
2022/10/24 11:09:57;;;;;;;;;6.75;2.50;;;;;19.40;61.74;100434.81;5015192;28;45378;-58
2022/10/24 11:12:37;;;;;;;;;3.00;1.75;;;;;19.38;61.94;100443.06;4999525;28;45558;-57
2022/10/24 11:15:13;;;;;;;;;3.00;1.75;;;;;19.33;61.93;100434.56;4994395;28;46166;-59
2022/10/24 11:17:46;;;;;;;;;2.33;1.00;;;;;19.24;62.25;100439.97;4995801;28;45256;-59
2022/10/24 11:20:33;;;;;;;;;5.25;2.00;;;;;19.26;62.04;100432.59;5010684;28;45345;-56
2022/10/24 11:23:20;;;;;;;;;2.67;2.00;;;;;19.33;61.93;100439.13;5015793;28;45479;-60
2022/10/24 11:26:54;;;;;;;;;3.00;3.00;;;;;19.39;61.41;100430.41;5015587;28;46114;-59
2022/10/24 11:29:34;;;;;;;;;3.00;2.00;;;;;19.45;61.53;100430.69;4965960;28;45295;-59
2022/10/24 11:32:10;;;;;;;;;3.00;2.00;;;;;19.52;61.40;100439.03;5011271;28;45390;-60
2022/10/24 11:34:44;;;;;;;;;4.00;2.00;;;;;19.61;61.13;100431.94;5017245;28;45279;-60
2022/10/24 11:37:32;;;;;;;;;3.67;3.67;;;;;19.67;61.25;100432.22;5017958;28;45488;-61
2022/10/24 11:40:13;;;;;;;;;2.50;2.00;;;;;19.67;60.70;100442.16;5017830;28;45493;-61
2022/10/24 11:42:41;;;;;;;;;5.00;2.67;;;;;19.64;60.86;100437.03;5019123;28;45550;-61